Aeroporto :
LOGIN :

Iscrizione | Disclaimer

   EN    FR    IT 

 










Sommario :    VFR   VFR Marginale   IFR   IFR Intensivo   IFR Molto Intensivo
Visibilità : 
Base nubi : 
>= 8 km
>= 3000ft
5 / 8 km
1000 / 3000 ft
1500m / 5 km
500 / 1000 ft
800 / 1500m
200 / 500 ft
< 800m
< 200 ft
Simboli :   Temporali  Nebbia  Neve Forte  Precipitazioni Forti  Vento > 20 kt
SIGMETs :   Varie  Temporali  Ghiacco  Turbolenza  Onda orograficha  Ceneri Vulcaniche







- Altitudine del aeroporto : 2697 ft
- Codice IATA : BLJ


DABT - Batna

ULTIMO METAR :
  • 210900Z 12007KT 8000 FEW006 BKN020 07/04 Q1014

METARs OBSOLETI :
  • 210800Z 32008KT 8000 FEW006 BKN020 06/04 Q1013
  • 210700Z 04003KT 6000 -RA FEW010 OVC020 05/03 Q1013

TAF TAF DABT
Valido dal 21 a 06 ore il 22 a 06 ore UTC


210500Z 2106/2206 01014KT 6000 -RA SCT016TCU BKN026
TEMPO 2106/2112 4000 -TSRA FEW023CB BKN015
PROB40
TEMPO 2106/2112 34015G25KT
PROB30
TEMPO 2106/2112 2000 -SN OVC008
Nessun NOTAM noto per questo aeroporto.



MetMap, La meteo Aeronautica in un colpo d'occhio ! - Copyright ORBIFLY Dicembre 2007 - Disclaimer

ORBIFLY MET'MAP TEAM :

Programmazione e sviluppo : Alexandra Zaïnal
Concezione e sviluppo : Baudouin d'Aumeries
Co-Programmazione e sviluppo : Marc-Olivier Méhu
Supporto tecnico e logistico : Manuel Goepfert
Aiuto per la traduzione : Arnaldo La Scala

Contatto : metmap@orbifly.com




FONTI E CREDITI :

   NOAA